sensor_id;sensor_type;location;lat;lon;timestamp;P1;durP1;ratioP1;P2;durP2;ratioP2
9914;SDS011;4996;48.746;9.174;2022-11-15T00:01:44;6.43;;;4.13;;
9914;SDS011;4996;48.746;9.174;2022-11-15T00:04:10;4.40;;;3.13;;
9914;SDS011;4996;48.746;9.174;2022-11-15T00:06:35;6.50;;;4.10;;
9914;SDS011;4996;48.746;9.174;2022-11-15T00:09:01;8.60;;;4.30;;
9914;SDS011;4996;48.746;9.174;2022-11-15T00:11:27;9.63;;;4.30;;
9914;SDS011;4996;48.746;9.174;2022-11-15T00:13:54;5.30;;;3.60;;
9914;SDS011;4996;48.746;9.174;2022-11-15T00:16:21;7.17;;;4.57;;
9914;SDS011;4996;48.746;9.174;2022-11-15T00:18:46;5.27;;;3.60;;
9914;SDS011;4996;48.746;9.174;2022-11-15T00:21:12;6.10;;;3.00;;
9914;SDS011;4996;48.746;9.174;2022-11-15T00:23:38;3.30;;;2.67;;
9914;SDS011;4996;48.746;9.174;2022-11-15T00:26:04;6.13;;;3.23;;
9914;SDS011;4996;48.746;9.174;2022-11-15T00:28:30;5.13;;;2.87;;
9914;SDS011;4996;48.746;9.174;2022-11-15T00:31:02;6.50;;;3.40;;
9914;SDS011;4996;48.746;9.174;2022-11-15T00:33:29;7.10;;;2.77;;
9914;SDS011;4996;48.746;9.174;2022-11-15T00:36:02;6.17;;;2.83;;
9914;SDS011;4996;48.746;9.174;2022-11-15T00:38:35;7.60;;;2.73;;
9914;SDS011;4996;48.746;9.174;2022-11-15T00:41:03;8.50;;;2.93;;
9914;SDS011;4996;48.746;9.174;2022-11-15T00:43:30;4.97;;;3.03;;
9914;SDS011;4996;48.746;9.174;2022-11-15T00:45:56;4.93;;;2.90;;
9914;SDS011;4996;48.746;9.174;2022-11-15T00:48:21;4.37;;;2.57;;
9914;SDS011;4996;48.746;9.174;2022-11-15T00:50:48;7.43;;;2.80;;
9914;SDS011;4996;48.746;9.174;2022-11-15T00:53:14;4.07;;;2.57;;
9914;SDS011;4996;48.746;9.174;2022-11-15T00:55:40;4.53;;;2.57;;
9914;SDS011;4996;48.746;9.174;2022-11-15T00:58:05;4.67;;;2.73;;
9914;SDS011;4996;48.746;9.174;2022-11-15T01:00:31;3.17;;;2.50;;
9914;SDS011;4996;48.746;9.174;2022-11-15T01:02:56;3.37;;;1.93;;
9914;SDS011;4996;48.746;9.174;2022-11-15T01:05:22;3.50;;;2.50;;
9914;SDS011;4996;48.746;9.174;2022-11-15T01:07:51;4.60;;;2.60;;
9914;SDS011;4996;48.746;9.174;2022-11-15T01:10:21;4.90;;;2.50;;
9914;SDS011;4996;48.746;9.174;2022-11-15T01:12:47;3.43;;;2.30;;
9914;SDS011;4996;48.746;9.174;2022-11-15T01:15:13;6.73;;;3.17;;
9914;SDS011;4996;48.746;9.174;2022-11-15T01:17:39;2.87;;;2.00;;
9914;SDS011;4996;48.746;9.174;2022-11-15T01:20:04;4.63;;;2.47;;
9914;SDS011;4996;48.746;9.174;2022-11-15T01:22:30;7.03;;;2.17;;
9914;SDS011;4996;48.746;9.174;2022-11-15T01:24:56;4.10;;;2.53;;
9914;SDS011;4996;48.746;9.174;2022-11-15T01:27:21;3.50;;;2.40;;
9914;SDS011;4996;48.746;9.174;2022-11-15T01:29:47;3.20;;;2.27;;
9914;SDS011;4996;48.746;9.174;2022-11-15T01:32:12;2.63;;;1.90;;
9914;SDS011;4996;48.746;9.174;2022-11-15T01:34:38;5.40;;;2.10;;
9914;SDS011;4996;48.746;9.174;2022-11-15T01:37:04;5.33;;;2.73;;
9914;SDS011;4996;48.746;9.174;2022-11-15T01:39:29;5.60;;;2.90;;
9914;SDS011;4996;48.746;9.174;2022-11-15T01:41:55;2.43;;;2.03;;
9914;SDS011;4996;48.746;9.174;2022-11-15T01:46:56;3.57;;;2.63;;
9914;SDS011;4996;48.746;9.174;2022-11-15T01:49:24;6.73;;;2.03;;
9914;SDS011;4996;48.746;9.174;2022-11-15T01:51:52;3.77;;;2.70;;
9914;SDS011;4996;48.746;9.174;2022-11-15T01:54:19;3.33;;;2.37;;
9914;SDS011;4996;48.746;9.174;2022-11-15T01:56:49;3.93;;;2.73;;
9914;SDS011;4996;48.746;9.174;2022-11-15T01:59:18;7.13;;;2.73;;
9914;SDS011;4996;48.746;9.174;2022-11-15T02:01:44;3.87;;;2.83;;
9914;SDS011;4996;48.746;9.174;2022-11-15T02:04:17;5.73;;;2.40;;
9914;SDS011;4996;48.746;9.174;2022-11-15T02:06:47;4.40;;;3.03;;
9914;SDS011;4996;48.746;9.174;2022-11-15T02:09:13;6.50;;;3.43;;
9914;SDS011;4996;48.746;9.174;2022-11-15T02:11:40;3.83;;;2.17;;
9914;SDS011;4996;48.746;9.174;2022-11-15T02:14:06;4.07;;;2.33;;
9914;SDS011;4996;48.746;9.174;2022-11-15T02:16:46;5.90;;;2.80;;
9914;SDS011;4996;48.746;9.174;2022-11-15T02:24:46;3.50;;;2.40;;
9914;SDS011;4996;48.746;9.174;2022-11-15T02:30:45;3.17;;;2.00;;
9914;SDS011;4996;48.746;9.174;2022-11-15T02:34:17;6.30;;;3.03;;
9914;SDS011;4996;48.746;9.174;2022-11-15T02:36:31;7.70;;;2.40;;
9914;SDS011;4996;48.746;9.174;2022-11-15T02:44:39;10.97;;;2.80;;
9914;SDS011;4996;48.746;9.174;2022-11-15T02:47:11;6.03;;;2.17;;
9914;SDS011;4996;48.746;9.174;2022-11-15T02:49:48;5.50;;;2.17;;
9914;SDS011;4996;48.746;9.174;2022-11-15T02:52:16;2.90;;;2.20;;
9914;SDS011;4996;48.746;9.174;2022-11-15T02:54:42;5.17;;;3.23;;
9914;SDS011;4996;48.746;9.174;2022-11-15T02:57:18;3.00;;;2.17;;
9914;SDS011;4996;48.746;9.174;2022-11-15T03:00:00;5.63;;;3.07;;
9914;SDS011;4996;48.746;9.174;2022-11-15T03:05:03;5.10;;;2.47;;
9914;SDS011;4996;48.746;9.174;2022-11-15T03:13:19;3.90;;;2.50;;
9914;SDS011;4996;48.746;9.174;2022-11-15T03:16:04;2.80;;;2.07;;
9914;SDS011;4996;48.746;9.174;2022-11-15T03:18:43;3.20;;;2.27;;
9914;SDS011;4996;48.746;9.174;2022-11-15T03:21:21;4.97;;;2.60;;
9914;SDS011;4996;48.746;9.174;2022-11-15T03:23:49;4.17;;;2.17;;
9914;SDS011;4996;48.746;9.174;2022-11-15T03:26:16;4.60;;;2.37;;
9914;SDS011;4996;48.746;9.174;2022-11-15T03:28:49;4.20;;;2.73;;
9914;SDS011;4996;48.746;9.174;2022-11-15T03:31:18;2.53;;;1.90;;
9914;SDS011;4996;48.746;9.174;2022-11-15T03:34:05;5.83;;;2.73;;
9914;SDS011;4996;48.746;9.174;2022-11-15T03:36:34;4.10;;;2.23;;
9914;SDS011;4996;48.746;9.174;2022-11-15T03:39:01;3.07;;;2.30;;
9914;SDS011;4996;48.746;9.174;2022-11-15T03:41:35;6.27;;;2.83;;
9914;SDS011;4996;48.746;9.174;2022-11-15T03:46:46;8.70;;;2.60;;
9914;SDS011;4996;48.746;9.174;2022-11-15T03:49:33;2.27;;;1.80;;
9914;SDS011;4996;48.746;9.174;2022-11-15T03:52:01;3.20;;;1.90;;
9914;SDS011;4996;48.746;9.174;2022-11-15T03:54:29;7.00;;;2.60;;
9914;SDS011;4996;48.746;9.174;2022-11-15T03:56:54;3.20;;;2.10;;
9914;SDS011;4996;48.746;9.174;2022-11-15T03:59:20;2.80;;;2.27;;
9914;SDS011;4996;48.746;9.174;2022-11-15T04:01:46;3.80;;;1.80;;
9914;SDS011;4996;48.746;9.174;2022-11-15T04:04:11;5.13;;;2.90;;
9914;SDS011;4996;48.746;9.174;2022-11-15T04:06:37;3.30;;;2.37;;
9914;SDS011;4996;48.746;9.174;2022-11-15T04:09:02;6.03;;;2.30;;
9914;SDS011;4996;48.746;9.174;2022-11-15T04:11:28;6.90;;;2.20;;
9914;SDS011;4996;48.746;9.174;2022-11-15T04:13:53;4.90;;;1.87;;
9914;SDS011;4996;48.746;9.174;2022-11-15T04:16:19;2.80;;;2.00;;
9914;SDS011;4996;48.746;9.174;2022-11-15T04:18:44;4.50;;;2.30;;
9914;SDS011;4996;48.746;9.174;2022-11-15T04:21:30;3.00;;;1.93;;
9914;SDS011;4996;48.746;9.174;2022-11-15T04:24:14;3.40;;;1.83;;
9914;SDS011;4996;48.746;9.174;2022-11-15T04:26:39;5.23;;;2.57;;
9914;SDS011;4996;48.746;9.174;2022-11-15T04:29:05;3.50;;;2.70;;
9914;SDS011;4996;48.746;9.174;2022-11-15T04:31:49;4.03;;;2.17;;
9914;SDS011;4996;48.746;9.174;2022-11-15T04:34:14;2.60;;;1.90;;
9914;SDS011;4996;48.746;9.174;2022-11-15T04:36:40;2.53;;;2.30;;
9914;SDS011;4996;48.746;9.174;2022-11-15T04:39:24;3.60;;;2.43;;
9914;SDS011;4996;48.746;9.174;2022-11-15T04:41:49;2.30;;;1.50;;
9914;SDS011;4996;48.746;9.174;2022-11-15T04:44:15;3.13;;;2.23;;
9914;SDS011;4996;48.746;9.174;2022-11-15T04:46:41;1.63;;;1.53;;
9914;SDS011;4996;48.746;9.174;2022-11-15T04:49:06;2.97;;;2.20;;
9914;SDS011;4996;48.746;9.174;2022-11-15T04:51:32;2.40;;;2.20;;
9914;SDS011;4996;48.746;9.174;2022-11-15T04:53:57;2.70;;;2.10;;
9914;SDS011;4996;48.746;9.174;2022-11-15T04:56:23;4.50;;;2.20;;
9914;SDS011;4996;48.746;9.174;2022-11-15T04:58:49;3.03;;;2.27;;
9914;SDS011;4996;48.746;9.174;2022-11-15T05:01:14;1.87;;;1.73;;
9914;SDS011;4996;48.746;9.174;2022-11-15T05:03:40;4.40;;;2.40;;
9914;SDS011;4996;48.746;9.174;2022-11-15T05:06:29;3.67;;;2.20;;
9914;SDS011;4996;48.746;9.174;2022-11-15T05:08:56;2.20;;;1.90;;
9914;SDS011;4996;48.746;9.174;2022-11-15T05:11:22;3.00;;;2.10;;
9914;SDS011;4996;48.746;9.174;2022-11-15T05:13:48;2.93;;;2.20;;
9914;SDS011;4996;48.746;9.174;2022-11-15T05:16:13;7.67;;;3.00;;
9914;SDS011;4996;48.746;9.174;2022-11-15T05:18:39;3.97;;;2.20;;
9914;SDS011;4996;48.746;9.174;2022-11-15T05:21:06;2.57;;;1.90;;
9914;SDS011;4996;48.746;9.174;2022-11-15T05:23:32;4.37;;;2.47;;
9914;SDS011;4996;48.746;9.174;2022-11-15T05:25:58;2.10;;;1.83;;
9914;SDS011;4996;48.746;9.174;2022-11-15T05:28:24;2.90;;;1.83;;
9914;SDS011;4996;48.746;9.174;2022-11-15T05:30:50;8.50;;;2.30;;
9914;SDS011;4996;48.746;9.174;2022-11-15T05:33:15;3.30;;;2.13;;
9914;SDS011;4996;48.746;9.174;2022-11-15T05:35:42;2.83;;;2.33;;
9914;SDS011;4996;48.746;9.174;2022-11-15T05:38:13;8.40;;;2.07;;
9914;SDS011;4996;48.746;9.174;2022-11-15T05:40:39;4.70;;;2.20;;
9914;SDS011;4996;48.746;9.174;2022-11-15T05:43:05;7.97;;;2.43;;
9914;SDS011;4996;48.746;9.174;2022-11-15T05:45:31;3.80;;;2.50;;
9914;SDS011;4996;48.746;9.174;2022-11-15T05:47:58;3.50;;;2.03;;
9914;SDS011;4996;48.746;9.174;2022-11-15T05:50:29;3.50;;;2.30;;
9914;SDS011;4996;48.746;9.174;2022-11-15T05:52:55;4.80;;;2.53;;
9914;SDS011;4996;48.746;9.174;2022-11-15T05:55:22;2.47;;;2.27;;
9914;SDS011;4996;48.746;9.174;2022-11-15T05:57:47;3.70;;;2.13;;
9914;SDS011;4996;48.746;9.174;2022-11-15T06:00:13;2.90;;;1.83;;
9914;SDS011;4996;48.746;9.174;2022-11-15T06:02:39;5.57;;;2.80;;
9914;SDS011;4996;48.746;9.174;2022-11-15T06:05:04;5.03;;;2.53;;
9914;SDS011;4996;48.746;9.174;2022-11-15T06:07:30;2.80;;;2.40;;
9914;SDS011;4996;48.746;9.174;2022-11-15T06:09:55;3.47;;;2.57;;
9914;SDS011;4996;48.746;9.174;2022-11-15T06:12:21;4.97;;;2.40;;
9914;SDS011;4996;48.746;9.174;2022-11-15T06:14:47;5.80;;;2.50;;
9914;SDS011;4996;48.746;9.174;2022-11-15T06:17:12;3.80;;;2.27;;
9914;SDS011;4996;48.746;9.174;2022-11-15T06:19:38;4.20;;;2.47;;
9914;SDS011;4996;48.746;9.174;2022-11-15T06:22:03;5.93;;;2.67;;
9914;SDS011;4996;48.746;9.174;2022-11-15T06:24:29;4.60;;;2.57;;
9914;SDS011;4996;48.746;9.174;2022-11-15T06:26:55;9.13;;;2.73;;
9914;SDS011;4996;48.746;9.174;2022-11-15T06:29:20;5.40;;;2.87;;
9914;SDS011;4996;48.746;9.174;2022-11-15T06:31:46;4.80;;;3.17;;
9914;SDS011;4996;48.746;9.174;2022-11-15T06:34:11;6.17;;;2.93;;
9914;SDS011;4996;48.746;9.174;2022-11-15T06:36:37;4.60;;;3.30;;
9914;SDS011;4996;48.746;9.174;2022-11-15T06:39:03;3.03;;;2.70;;
9914;SDS011;4996;48.746;9.174;2022-11-15T06:41:29;8.07;;;3.53;;
9914;SDS011;4996;48.746;9.174;2022-11-15T06:43:56;3.90;;;3.03;;
9914;SDS011;4996;48.746;9.174;2022-11-15T06:46:22;5.87;;;3.10;;
9914;SDS011;4996;48.746;9.174;2022-11-15T06:48:50;5.43;;;3.00;;
9914;SDS011;4996;48.746;9.174;2022-11-15T06:51:16;6.40;;;3.93;;
9914;SDS011;4996;48.746;9.174;2022-11-15T06:53:43;6.30;;;3.53;;
9914;SDS011;4996;48.746;9.174;2022-11-15T06:56:09;4.43;;;3.87;;
9914;SDS011;4996;48.746;9.174;2022-11-15T06:58:35;10.87;;;3.97;;
9914;SDS011;4996;48.746;9.174;2022-11-15T07:01:02;8.30;;;4.80;;
9914;SDS011;4996;48.746;9.174;2022-11-15T07:03:34;6.17;;;4.80;;
9914;SDS011;4996;48.746;9.174;2022-11-15T07:06:00;7.40;;;4.50;;
9914;SDS011;4996;48.746;9.174;2022-11-15T07:08:27;5.27;;;3.77;;
9914;SDS011;4996;48.746;9.174;2022-11-15T07:10:53;5.70;;;4.80;;
9914;SDS011;4996;48.746;9.174;2022-11-15T07:13:19;6.80;;;4.20;;
9914;SDS011;4996;48.746;9.174;2022-11-15T07:15:48;7.17;;;5.20;;
9914;SDS011;4996;48.746;9.174;2022-11-15T07:18:14;7.33;;;5.43;;
9914;SDS011;4996;48.746;9.174;2022-11-15T07:20:39;6.23;;;4.00;;
9914;SDS011;4996;48.746;9.174;2022-11-15T07:23:05;6.07;;;4.47;;
9914;SDS011;4996;48.746;9.174;2022-11-15T07:25:30;6.87;;;4.50;;
9914;SDS011;4996;48.746;9.174;2022-11-15T07:27:57;4.83;;;4.27;;
9914;SDS011;4996;48.746;9.174;2022-11-15T07:30:24;6.50;;;4.77;;
9914;SDS011;4996;48.746;9.174;2022-11-15T07:32:57;7.90;;;4.70;;
9914;SDS011;4996;48.746;9.174;2022-11-15T07:35:24;6.73;;;4.27;;
9914;SDS011;4996;48.746;9.174;2022-11-15T07:37:57;6.10;;;4.60;;
9914;SDS011;4996;48.746;9.174;2022-11-15T07:40:24;7.10;;;5.10;;
9914;SDS011;4996;48.746;9.174;2022-11-15T07:42:51;8.00;;;4.87;;
9914;SDS011;4996;48.746;9.174;2022-11-15T07:45:20;5.80;;;3.97;;
9914;SDS011;4996;48.746;9.174;2022-11-15T07:47:51;7.60;;;3.47;;
9914;SDS011;4996;48.746;9.174;2022-11-15T07:50:17;5.70;;;4.47;;
9914;SDS011;4996;48.746;9.174;2022-11-15T07:52:43;3.60;;;2.60;;
9914;SDS011;4996;48.746;9.174;2022-11-15T07:55:08;6.13;;;3.00;;
9914;SDS011;4996;48.746;9.174;2022-11-15T07:57:34;4.70;;;2.60;;
9914;SDS011;4996;48.746;9.174;2022-11-15T08:00:00;3.80;;;2.80;;
9914;SDS011;4996;48.746;9.174;2022-11-15T08:02:26;7.07;;;4.00;;
9914;SDS011;4996;48.746;9.174;2022-11-15T08:04:51;7.57;;;3.17;;
9914;SDS011;4996;48.746;9.174;2022-11-15T08:07:17;6.03;;;3.23;;
9914;SDS011;4996;48.746;9.174;2022-11-15T08:09:42;5.40;;;3.00;;
9914;SDS011;4996;48.746;9.174;2022-11-15T08:12:08;7.50;;;3.23;;
9914;SDS011;4996;48.746;9.174;2022-11-15T08:14:34;2.57;;;2.27;;
9914;SDS011;4996;48.746;9.174;2022-11-15T08:17:00;5.43;;;3.23;;
9914;SDS011;4996;48.746;9.174;2022-11-15T08:19:26;3.90;;;2.97;;
9914;SDS011;4996;48.746;9.174;2022-11-15T08:21:51;3.33;;;2.20;;
9914;SDS011;4996;48.746;9.174;2022-11-15T08:24:17;4.23;;;2.13;;
9914;SDS011;4996;48.746;9.174;2022-11-15T08:26:42;3.33;;;2.60;;
9914;SDS011;4996;48.746;9.174;2022-11-15T08:29:08;5.57;;;3.20;;
9914;SDS011;4996;48.746;9.174;2022-11-15T08:31:34;7.20;;;2.73;;
9914;SDS011;4996;48.746;9.174;2022-11-15T08:34:01;3.17;;;2.50;;
9914;SDS011;4996;48.746;9.174;2022-11-15T08:36:28;3.23;;;2.33;;
9914;SDS011;4996;48.746;9.174;2022-11-15T08:38:53;4.57;;;2.60;;
9914;SDS011;4996;48.746;9.174;2022-11-15T08:41:23;6.50;;;2.70;;
9914;SDS011;4996;48.746;9.174;2022-11-15T08:43:57;5.90;;;3.37;;
9914;SDS011;4996;48.746;9.174;2022-11-15T08:46:22;5.50;;;2.57;;
9914;SDS011;4996;48.746;9.174;2022-11-15T08:48:48;6.20;;;2.73;;
9914;SDS011;4996;48.746;9.174;2022-11-15T08:51:14;3.73;;;2.67;;
9914;SDS011;4996;48.746;9.174;2022-11-15T08:53:40;2.90;;;2.30;;
9914;SDS011;4996;48.746;9.174;2022-11-15T08:56:10;2.80;;;2.50;;
9914;SDS011;4996;48.746;9.174;2022-11-15T08:58:36;5.43;;;2.70;;
9914;SDS011;4996;48.746;9.174;2022-11-15T09:01:02;3.40;;;2.33;;
9914;SDS011;4996;48.746;9.174;2022-11-15T09:03:29;2.73;;;1.97;;
9914;SDS011;4996;48.746;9.174;2022-11-15T09:05:55;2.90;;;2.07;;
9914;SDS011;4996;48.746;9.174;2022-11-15T09:08:21;4.23;;;2.33;;
9914;SDS011;4996;48.746;9.174;2022-11-15T09:10:47;3.33;;;2.57;;
9914;SDS011;4996;48.746;9.174;2022-11-15T09:13:13;5.20;;;2.43;;
9914;SDS011;4996;48.746;9.174;2022-11-15T09:15:38;4.23;;;1.67;;
9914;SDS011;4996;48.746;9.174;2022-11-15T09:18:04;4.50;;;1.70;;
9914;SDS011;4996;48.746;9.174;2022-11-15T09:20:30;2.57;;;2.03;;
9914;SDS011;4996;48.746;9.174;2022-11-15T09:22:58;5.80;;;2.60;;
9914;SDS011;4996;48.746;9.174;2022-11-15T09:25:24;3.90;;;2.50;;
9914;SDS011;4996;48.746;9.174;2022-11-15T09:27:50;2.33;;;1.93;;
9914;SDS011;4996;48.746;9.174;2022-11-15T09:30:15;4.17;;;2.53;;
9914;SDS011;4996;48.746;9.174;2022-11-15T09:32:41;4.00;;;2.50;;
9914;SDS011;4996;48.746;9.174;2022-11-15T09:35:06;5.83;;;2.07;;
9914;SDS011;4996;48.746;9.174;2022-11-15T09:37:32;3.80;;;2.20;;
9914;SDS011;4996;48.746;9.174;2022-11-15T09:39:58;3.23;;;2.53;;
9914;SDS011;4996;48.746;9.174;2022-11-15T09:48:03;4.67;;;2.40;;
9914;SDS011;4996;48.746;9.174;2022-11-15T09:50:49;5.27;;;2.43;;
9914;SDS011;4996;48.746;9.174;2022-11-15T09:53:24;3.87;;;1.77;;
9914;SDS011;4996;48.746;9.174;2022-11-15T09:56:05;2.77;;;2.03;;
9914;SDS011;4996;48.746;9.174;2022-11-15T10:01:25;11.83;;;2.77;;
9914;SDS011;4996;48.746;9.174;2022-11-15T10:04:01;4.40;;;2.07;;
9914;SDS011;4996;48.746;9.174;2022-11-15T10:06:27;3.43;;;2.30;;
9914;SDS011;4996;48.746;9.174;2022-11-15T10:11:30;3.00;;;2.00;;
9914;SDS011;4996;48.746;9.174;2022-11-15T10:14:00;2.80;;;2.40;;
9914;SDS011;4996;48.746;9.174;2022-11-15T10:19:42;5.13;;;2.23;;
9914;SDS011;4996;48.746;9.174;2022-11-15T10:22:30;2.30;;;2.07;;
9914;SDS011;4996;48.746;9.174;2022-11-15T10:27:34;5.80;;;2.50;;
9914;SDS011;4996;48.746;9.174;2022-11-15T10:30:00;2.90;;;2.13;;
9914;SDS011;4996;48.746;9.174;2022-11-15T10:32:25;4.50;;;2.20;;
9914;SDS011;4996;48.746;9.174;2022-11-15T10:34:52;7.37;;;2.97;;
9914;SDS011;4996;48.746;9.174;2022-11-15T10:37:27;4.83;;;3.20;;
9914;SDS011;4996;48.746;9.174;2022-11-15T10:45:39;10.60;;;3.13;;
9914;SDS011;4996;48.746;9.174;2022-11-15T10:50:36;4.07;;;3.00;;
9914;SDS011;4996;48.746;9.174;2022-11-15T10:53:02;4.07;;;2.73;;
9914;SDS011;4996;48.746;9.174;2022-11-15T10:55:29;6.73;;;2.90;;
9914;SDS011;4996;48.746;9.174;2022-11-15T10:58:06;5.53;;;3.27;;
9914;SDS011;4996;48.746;9.174;2022-11-15T11:00:47;4.80;;;2.90;;
9914;SDS011;4996;48.746;9.174;2022-11-15T11:06:11;4.40;;;3.40;;
9914;SDS011;4996;48.746;9.174;2022-11-15T11:08:58;8.07;;;3.00;;
9914;SDS011;4996;48.746;9.174;2022-11-15T11:11:43;6.03;;;3.03;;
9914;SDS011;4996;48.746;9.174;2022-11-15T11:14:29;6.27;;;3.07;;
9914;SDS011;4996;48.746;9.174;2022-11-15T11:17:02;5.37;;;3.13;;
9914;SDS011;4996;48.746;9.174;2022-11-15T11:34:00;4.67;;;3.60;;
9914;SDS011;4996;48.746;9.174;2022-11-15T11:36:56;12.37;;;3.70;;
9914;SDS011;4996;48.746;9.174;2022-11-15T11:39:40;16.90;;;3.93;;
9914;SDS011;4996;48.746;9.174;2022-11-15T11:45:38;6.90;;;3.90;;
9914;SDS011;4996;48.746;9.174;2022-11-15T11:50:58;10.10;;;5.13;;
9914;SDS011;4996;48.746;9.174;2022-11-15T11:53:55;5.37;;;3.50;;
9914;SDS011;4996;48.746;9.174;2022-11-15T11:56:39;6.03;;;3.53;;
9914;SDS011;4996;48.746;9.174;2022-11-15T11:59:17;10.87;;;3.77;;
9914;SDS011;4996;48.746;9.174;2022-11-15T12:01:56;6.57;;;4.00;;
9914;SDS011;4996;48.746;9.174;2022-11-15T12:04:29;5.27;;;3.00;;
9914;SDS011;4996;48.746;9.174;2022-11-15T12:07:11;11.57;;;4.17;;
9914;SDS011;4996;48.746;9.174;2022-11-15T12:09:58;5.80;;;3.40;;
9914;SDS011;4996;48.746;9.174;2022-11-15T12:13:01;5.73;;;3.77;;
9914;SDS011;4996;48.746;9.174;2022-11-15T12:18:12;11.07;;;3.10;;
9914;SDS011;4996;48.746;9.174;2022-11-15T12:20:41;4.77;;;3.27;;
9914;SDS011;4996;48.746;9.174;2022-11-15T12:23:19;6.60;;;3.30;;
9914;SDS011;4996;48.746;9.174;2022-11-15T12:25:51;7.23;;;2.93;;
9914;SDS011;4996;48.746;9.174;2022-11-15T12:31:04;9.27;;;4.00;;
9914;SDS011;4996;48.746;9.174;2022-11-15T12:33:39;6.63;;;3.23;;
9914;SDS011;4996;48.746;9.174;2022-11-15T12:36:11;6.77;;;4.17;;
9914;SDS011;4996;48.746;9.174;2022-11-15T12:38:54;7.07;;;3.60;;
9914;SDS011;4996;48.746;9.174;2022-11-15T12:41:22;5.93;;;3.37;;
9914;SDS011;4996;48.746;9.174;2022-11-15T12:43:50;8.53;;;3.63;;
9914;SDS011;4996;48.746;9.174;2022-11-15T12:51:18;6.67;;;4.10;;
9914;SDS011;4996;48.746;9.174;2022-11-15T12:53:45;5.10;;;4.40;;
9914;SDS011;4996;48.746;9.174;2022-11-15T12:58:58;6.30;;;3.93;;
9914;SDS011;4996;48.746;9.174;2022-11-15T13:07:03;7.50;;;4.03;;
9914;SDS011;4996;48.746;9.174;2022-11-15T13:14:52;8.00;;;3.90;;
9914;SDS011;4996;48.746;9.174;2022-11-15T13:17:32;4.53;;;3.63;;
9914;SDS011;4996;48.746;9.174;2022-11-15T13:20:07;3.53;;;3.23;;
9914;SDS011;4996;48.746;9.174;2022-11-15T13:30:49;5.23;;;3.80;;
9914;SDS011;4996;48.746;9.174;2022-11-15T13:35:45;7.40;;;3.30;;
9914;SDS011;4996;48.746;9.174;2022-11-15T13:38:22;5.33;;;3.63;;
9914;SDS011;4996;48.746;9.174;2022-11-15T13:40:53;5.27;;;3.80;;
9914;SDS011;4996;48.746;9.174;2022-11-15T13:49:10;4.80;;;2.80;;
9914;SDS011;4996;48.746;9.174;2022-11-15T13:51:37;4.73;;;3.87;;
9914;SDS011;4996;48.746;9.174;2022-11-15T13:56:35;5.90;;;2.97;;
9914;SDS011;4996;48.746;9.174;2022-11-15T13:59:08;8.60;;;5.03;;
9914;SDS011;4996;48.746;9.174;2022-11-15T14:01:45;7.37;;;3.37;;
9914;SDS011;4996;48.746;9.174;2022-11-15T14:04:11;8.00;;;3.77;;
9914;SDS011;4996;48.746;9.174;2022-11-15T14:06:47;7.23;;;3.83;;
9914;SDS011;4996;48.746;9.174;2022-11-15T14:11:57;8.83;;;6.03;;
9914;SDS011;4996;48.746;9.174;2022-11-15T14:14:25;4.07;;;3.40;;
9914;SDS011;4996;48.746;9.174;2022-11-15T14:16:55;4.87;;;3.63;;
9914;SDS011;4996;48.746;9.174;2022-11-15T14:24:39;4.50;;;4.07;;
9914;SDS011;4996;48.746;9.174;2022-11-15T14:29:48;10.10;;;4.20;;
9914;SDS011;4996;48.746;9.174;2022-11-15T14:32:15;8.63;;;4.07;;
9914;SDS011;4996;48.746;9.174;2022-11-15T14:34:46;5.13;;;3.40;;
9914;SDS011;4996;48.746;9.174;2022-11-15T14:39:45;8.40;;;3.63;;
9914;SDS011;4996;48.746;9.174;2022-11-15T14:42:11;4.60;;;3.37;;
9914;SDS011;4996;48.746;9.174;2022-11-15T14:44:37;3.57;;;2.67;;
9914;SDS011;4996;48.746;9.174;2022-11-15T14:47:02;6.17;;;3.10;;
9914;SDS011;4996;48.746;9.174;2022-11-15T14:49:28;9.23;;;3.63;;
9914;SDS011;4996;48.746;9.174;2022-11-15T14:51:53;9.70;;;3.27;;
9914;SDS011;4996;48.746;9.174;2022-11-15T14:54:19;5.63;;;3.63;;
9914;SDS011;4996;48.746;9.174;2022-11-15T14:56:44;7.47;;;3.97;;
9914;SDS011;4996;48.746;9.174;2022-11-15T14:59:10;9.50;;;3.70;;
9914;SDS011;4996;48.746;9.174;2022-11-15T15:01:35;7.27;;;4.00;;
9914;SDS011;4996;48.746;9.174;2022-11-15T15:04:01;8.63;;;4.43;;
9914;SDS011;4996;48.746;9.174;2022-11-15T15:06:26;8.23;;;4.10;;
9914;SDS011;4996;48.746;9.174;2022-11-15T15:08:52;7.27;;;4.23;;
9914;SDS011;4996;48.746;9.174;2022-11-15T15:11:25;10.63;;;5.53;;
9914;SDS011;4996;48.746;9.174;2022-11-15T15:13:52;10.80;;;7.00;;
9914;SDS011;4996;48.746;9.174;2022-11-15T15:16:21;7.70;;;5.03;;
9914;SDS011;4996;48.746;9.174;2022-11-15T15:18:46;9.20;;;5.87;;
9914;SDS011;4996;48.746;9.174;2022-11-15T15:21:23;9.13;;;4.60;;
9914;SDS011;4996;48.746;9.174;2022-11-15T15:23:50;7.00;;;4.60;;
9914;SDS011;4996;48.746;9.174;2022-11-15T15:26:16;6.97;;;4.70;;
9914;SDS011;4996;48.746;9.174;2022-11-15T15:28:42;5.13;;;4.53;;
9914;SDS011;4996;48.746;9.174;2022-11-15T15:31:08;5.70;;;3.70;;
9914;SDS011;4996;48.746;9.174;2022-11-15T15:33:35;10.80;;;5.73;;
9914;SDS011;4996;48.746;9.174;2022-11-15T15:36:00;7.10;;;5.10;;
9914;SDS011;4996;48.746;9.174;2022-11-15T15:38:26;11.57;;;5.30;;
9914;SDS011;4996;48.746;9.174;2022-11-15T15:40:51;7.20;;;4.67;;
9914;SDS011;4996;48.746;9.174;2022-11-15T15:43:17;9.63;;;4.87;;
9914;SDS011;4996;48.746;9.174;2022-11-15T15:45:43;5.60;;;4.70;;
9914;SDS011;4996;48.746;9.174;2022-11-15T15:48:13;7.50;;;5.27;;
9914;SDS011;4996;48.746;9.174;2022-11-15T15:50:40;8.47;;;5.20;;
9914;SDS011;4996;48.746;9.174;2022-11-15T15:53:08;6.03;;;5.07;;
9914;SDS011;4996;48.746;9.174;2022-11-15T15:55:35;9.63;;;5.30;;
9914;SDS011;4996;48.746;9.174;2022-11-15T15:58:02;13.03;;;5.57;;
9914;SDS011;4996;48.746;9.174;2022-11-15T16:00:28;10.43;;;5.90;;
9914;SDS011;4996;48.746;9.174;2022-11-15T16:02:54;13.80;;;5.60;;
9914;SDS011;4996;48.746;9.174;2022-11-15T16:05:20;8.10;;;6.40;;
9914;SDS011;4996;48.746;9.174;2022-11-15T16:07:46;8.07;;;6.27;;
9914;SDS011;4996;48.746;9.174;2022-11-15T16:12:52;8.60;;;5.83;;
9914;SDS011;4996;48.746;9.174;2022-11-15T16:15:18;8.20;;;6.10;;
9914;SDS011;4996;48.746;9.174;2022-11-15T16:17:52;9.70;;;5.77;;
9914;SDS011;4996;48.746;9.174;2022-11-15T16:20:41;8.13;;;6.10;;
9914;SDS011;4996;48.746;9.174;2022-11-15T16:23:08;10.37;;;6.60;;
9914;SDS011;4996;48.746;9.174;2022-11-15T16:28:03;7.67;;;5.97;;
9914;SDS011;4996;48.746;9.174;2022-11-15T16:30:29;10.73;;;5.87;;
9914;SDS011;4996;48.746;9.174;2022-11-15T16:32:54;7.90;;;5.70;;
9914;SDS011;4996;48.746;9.174;2022-11-15T16:35:20;13.00;;;6.77;;
9914;SDS011;4996;48.746;9.174;2022-11-15T16:37:45;15.03;;;5.93;;
9914;SDS011;4996;48.746;9.174;2022-11-15T16:42:51;10.00;;;5.67;;
9914;SDS011;4996;48.746;9.174;2022-11-15T16:45:17;9.70;;;6.00;;
9914;SDS011;4996;48.746;9.174;2022-11-15T16:47:42;9.50;;;5.50;;
9914;SDS011;4996;48.746;9.174;2022-11-15T16:50:15;6.80;;;4.23;;
9914;SDS011;4996;48.746;9.174;2022-11-15T16:52:52;12.97;;;8.27;;
9914;SDS011;4996;48.746;9.174;2022-11-15T16:55:22;11.63;;;6.07;;
9914;SDS011;4996;48.746;9.174;2022-11-15T16:57:50;10.80;;;5.40;;
9914;SDS011;4996;48.746;9.174;2022-11-15T17:00:16;8.67;;;5.60;;
9914;SDS011;4996;48.746;9.174;2022-11-15T17:02:43;11.53;;;7.03;;
9914;SDS011;4996;48.746;9.174;2022-11-15T17:05:09;10.87;;;6.97;;
9914;SDS011;4996;48.746;9.174;2022-11-15T17:07:36;17.03;;;7.40;;
9914;SDS011;4996;48.746;9.174;2022-11-15T17:10:02;10.10;;;7.37;;
9914;SDS011;4996;48.746;9.174;2022-11-15T17:12:28;13.53;;;9.00;;
9914;SDS011;4996;48.746;9.174;2022-11-15T17:14:54;19.50;;;8.60;;
9914;SDS011;4996;48.746;9.174;2022-11-15T17:17:20;16.33;;;8.30;;
9914;SDS011;4996;48.746;9.174;2022-11-15T17:19:46;14.03;;;8.00;;
9914;SDS011;4996;48.746;9.174;2022-11-15T17:22:11;13.60;;;8.83;;
9914;SDS011;4996;48.746;9.174;2022-11-15T17:24:37;15.93;;;9.07;;
9914;SDS011;4996;48.746;9.174;2022-11-15T17:27:03;13.03;;;8.57;;
9914;SDS011;4996;48.746;9.174;2022-11-15T17:29:28;14.83;;;8.67;;
9914;SDS011;4996;48.746;9.174;2022-11-15T17:31:54;15.47;;;9.30;;
9914;SDS011;4996;48.746;9.174;2022-11-15T17:34:20;13.27;;;8.13;;
9914;SDS011;4996;48.746;9.174;2022-11-15T17:36:45;13.00;;;7.80;;
9914;SDS011;4996;48.746;9.174;2022-11-15T17:39:12;12.20;;;7.27;;
9914;SDS011;4996;48.746;9.174;2022-11-15T17:41:37;14.17;;;6.97;;
9914;SDS011;4996;48.746;9.174;2022-11-15T17:44:03;15.20;;;7.50;;
9914;SDS011;4996;48.746;9.174;2022-11-15T17:46:28;12.27;;;6.60;;